createdAt,value
2023-05-16T19:59:03.904Z,101837.94
2023-05-16T20:04:00.705Z,101829.13
2023-05-16T20:09:00.565Z,101834.53
2023-05-16T20:13:59.504Z,101843.91
2023-05-16T20:18:56.261Z,101841.00
2023-05-16T20:23:52.879Z,101855.41
2023-05-16T20:28:49.382Z,101842.19
2023-05-16T20:33:46.797Z,101815.72
2023-05-16T20:38:43.525Z,101828.28
2023-05-16T20:43:40.090Z,101813.75
2023-05-16T20:48:36.699Z,101838.66
2023-05-16T20:53:33.172Z,101836.09
2023-05-16T20:58:29.812Z,101825.88
2023-05-16T21:03:26.720Z,101827.84
2023-05-16T21:08:23.362Z,101825.66
2023-05-16T21:13:19.875Z,101816.91
2023-05-16T21:18:17.459Z,101839.50
2023-05-16T21:23:15.776Z,101816.69
2023-05-16T21:28:12.388Z,101812.34
2023-05-16T21:33:09.073Z,101798.06
2023-05-16T21:38:05.860Z,101797.94
2023-05-16T21:43:02.270Z,101814.16
2023-05-16T21:47:58.915Z,101820.00
2023-05-16T21:52:55.382Z,101827.75
2023-05-16T21:57:51.904Z,101824.31
2023-05-16T22:02:48.791Z,101827.69
2023-05-16T22:07:45.904Z,101807.94
2023-05-16T22:12:42.487Z,101801.94
2023-05-16T22:17:39.679Z,101825.34
2023-05-16T22:22:36.341Z,101808.91
2023-05-16T22:27:37.247Z,101807.94
2023-05-16T22:32:33.854Z,101804.34
2023-05-16T22:37:30.518Z,101783.53
2023-05-16T22:42:27.106Z,101788.16
2023-05-16T22:47:23.696Z,101806.41
2023-05-16T22:52:21.924Z,101791.63
2023-05-16T22:57:18.545Z,101793.50
2023-05-16T23:02:15.126Z,101796.59
2023-05-16T23:07:11.655Z,101804.66
2023-05-16T23:12:08.631Z,101808.88
2023-05-16T23:17:05.516Z,101824.75
2023-05-16T23:22:03.416Z,101838.94
2023-05-16T23:26:59.944Z,101840.84
2023-05-16T23:31:56.545Z,101840.22
2023-05-16T23:36:53.114Z,101846.91
2023-05-16T23:41:49.712Z,101857.00
2023-05-16T23:46:46.275Z,101855.75
2023-05-16T23:51:56.894Z,101870.66
2023-05-16T23:56:54.710Z,101862.97
